Eagle — WBP2187 — position and weather

sailwx.info

Track history (hours):
 
Tides and Currents Weather Stations Pressure Air Temp Water Temp Dewpoint Dewpoint Depression Visibility Wind Speed Wind Dir Waves Ship Positions

Eagle

Owner: Harley Marine Services, INC, SEATTLE, WA. More information available from US FCC via Universal Licensing System and Coast Guard Vessel Documentation Center.

Last reported at 2017-Mar-30 02:33 UTC. Time now 2017-Mar-30 02:52 UTC.
Position N 47°36' W 122°21'.

Length 32 m; draft 4.5 m.

Type: Tow > 200 m length. MMSI: 366978690.

Date/timePositionNaut miles runAvg speedWind from/ knotsBaromVisibWave heightAir tempDewpointWater temp
2017-Mar-30 02:33N 47°36' W 122°21'0 0.0
2017-Mar-30 01:33N 47°36' W 122°21'0 0.0
2017-Mar-30 00:33N 47°36' W 122°21'0 0.0
2017-Mar-29 23:33N 47°36' W 122°21'1 1.3
2017-Mar-29 22:33N 47°34' W 122°21'0 0.0
2017-Mar-29 21:33N 47°34' W 122°21'0 0.0
2017-Mar-29 20:33N 47°34' W 122°21'0 0.0
2017-Mar-29 19:33N 47°34' W 122°21'0 0.0
2017-Mar-29 18:33N 47°34' W 122°21'1 1.3
2017-Mar-29 17:33N 47°36' W 122°21'4 4.4
2017-Mar-29 16:33N 47°33' W 122°26'9 8.7
2017-Mar-29 15:33N 47°25' W 122°22'7 7.3
2017-Mar-29 14:33N 47°18' W 122°27'3 2.6
2017-Mar-29 13:33N 47°16' W 122°25'0 0.0
2017-Mar-29 12:28N 47°16' W 122°25'0 0.4
2017-Mar-29 11:33N 47°16' W 122°25'0 0.4
2017-Mar-29 10:33N 47°16' W 122°25'0 0.0
2017-Mar-29 09:32N 47°16' W 122°25'0 0.0
2017-Mar-29 08:33N 47°16' W 122°25'0 0.0
2017-Mar-29 07:33N 47°16' W 122°25'0 0.0
2017-Mar-29 06:33N 47°16' W 122°25'0 0.0
2017-Mar-29 05:33N 47°16' W 122°25'2 1.6
2017-Mar-29 04:33N 47°17' W 122°26'2 1.7
2017-Mar-29 03:33N 47°19' W 122°28'5 5.2
2017-Mar-29 02:33N 47°23' W 122°23'5 5.5
2017-Mar-29 01:33N 47°28' W 122°25'5 5.1
2017-Mar-29 00:33N 47°33' W 122°27'6 6.2
2017-Mar-28 23:33N 47°39' W 122°28'6 5.9
2017-Mar-28 22:33N 47°45' W 122°27'3 3.0
2017-Mar-28 21:33N 47°47' W 122°24'0 0.0
2017-Mar-28 20:33N 47°47' W 122°24'0 0.0
2017-Mar-28 19:33N 47°47' W 122°24'0 0.0
2017-Mar-28 18:33N 47°47' W 122°24'0 0.0
2017-Mar-28 17:33N 47°47' W 122°24'0 0.0
2017-Mar-28 16:33N 47°47' W 122°24'0 0.0
2017-Mar-28 15:33N 47°47' W 122°24'0 0.0
2017-Mar-28 14:33N 47°47' W 122°24'0 0.0
2017-Mar-28 13:33N 47°47' W 122°24'0 0.0
2017-Mar-28 12:33N 47°47' W 122°24'0 0.0
2017-Mar-28 11:33N 47°47' W 122°24'0 0.0
2017-Mar-28 10:33N 47°47' W 122°24'0 0.0
2017-Mar-28 09:33N 47°47' W 122°24'0 0.0
2017-Mar-28 08:33N 47°47' W 122°24'0 0.0
2017-Mar-28 07:33N 47°47' W 122°24'0 0.0
2017-Mar-28 06:33N 47°47' W 122°24'0 0.0
2017-Mar-28 05:33N 47°47' W 122°24'0 0.0
2017-Mar-28 04:33N 47°47' W 122°24'0 0.0
2017-Mar-28 03:33N 47°47' W 122°24'0 0.0
2017-Mar-28 02:33N 47°47' W 122°24'0 0.0
2017-Mar-28 01:33N 47°47' W 122°24'0 0.0
2017-Mar-28 00:33N 47°47' W 122°24'0 0.0
2017-Mar-27 23:33N 47°47' W 122°24'0 0.0
2017-Mar-27 22:33N 47°47' W 122°24'0 0.0
2017-Mar-27 21:33N 47°47' W 122°24'0 0.0
2017-Mar-27 20:33N 47°47' W 122°24'0 0.0
2017-Mar-27 19:33N 47°47' W 122°24'0 0.0
2017-Mar-27 18:33N 47°47' W 122°24'0 0.0
2017-Mar-27 17:33N 47°47' W 122°24'0 0.0
2017-Mar-27 16:33N 47°47' W 122°24'0 0.0
2017-Mar-27 15:33N 47°47' W 122°24'0 0.0
2017-Mar-27 14:33N 47°47' W 122°24'0 0.0
2017-Mar-27 13:33N 47°47' W 122°24'0 0.0
2017-Mar-27 12:33N 47°47' W 122°24'0 0.0
2017-Mar-27 11:33N 47°47' W 122°24'0 0.1
2017-Mar-27 10:33N 47°47' W 122°24'1 1.1
2017-Mar-27 09:33N 47°48' W 122°25'4 4.1
2017-Mar-27 08:33N 47°52' W 122°27'7 7.3
2017-Mar-27 07:32N 47°57' W 122°35'12 6.1
2017-Mar-27 05:31N 48°08' W 122°43'5 4.9
2017-Mar-27 04:33N 48°12' W 122°48'5 5.2
2017-Mar-27 03:30N 48°17' W 122°48'7 7.4
2017-Mar-27 02:31N 48°24' W 122°45'7 7.2
2017-Mar-27 01:33N 48°31' W 122°43'6 5.5
2017-Mar-27 00:32N 48°31' W 122°34'0 0.3
2017-Mar-26 23:30N 48°30' W 122°34'0 0.0
2017-Mar-26 22:30N 48°30' W 122°34'0 0.0
2017-Mar-26 21:30N 48°30' W 122°34'0 0.0
2017-Mar-26 20:30N 48°30' W 122°34'0 0.0
2017-Mar-26 19:30N 48°30' W 122°34'0 0.0
2017-Mar-26 18:30N 48°30' W 122°34'0 0.0
2017-Mar-26 17:30N 48°30' W 122°34'0 0.0
2017-Mar-26 16:30N 48°30' W 122°34'0 0.0
2017-Mar-26 15:18N 48°30' W 122°34'0 0.0
2017-Mar-26 14:30N 48°30' W 122°34'0 0.0
2017-Mar-26 13:12N 48°30' W 122°34'0 0.0
2017-Mar-26 12:30N 48°30' W 122°34'0 0.0
2017-Mar-26 11:30N 48°30' W 122°34'0 0.0
2017-Mar-26 10:24N 48°30' W 122°34'0 0.0
2017-Mar-26 09:30N 48°30' W 122°34'0 0.0
2017-Mar-26 08:24N 48°30' W 122°34'0 0.0
2017-Mar-26 07:30N 48°30' W 122°34'0 0.0
2017-Mar-26 06:30N 48°30' W 122°34'0 0.0
2017-Mar-26 05:30N 48°30' W 122°34'0 0.0
2017-Mar-26 04:24N 48°30' W 122°34'0 0.0
2017-Mar-26 03:31N 48°30' W 122°34'0 0.0
2017-Mar-26 02:33N 48°30' W 122°34'0 0.0
2017-Mar-26 01:33N 48°30' W 122°34'0 0.0
2017-Mar-26 00:33N 48°30' W 122°34'0 0.0
2017-Mar-25 23:33N 48°30' W 122°34'0 0.0
2017-Mar-25 22:33N 48°30' W 122°34'0 0.0
2017-Mar-25 21:33N 48°30' W 122°34'0 0.0
2017-Mar-25 20:33N 48°30' W 122°34'0 0.0
2017-Mar-25 19:33N 48°30' W 122°34'0 0.0
2017-Mar-25 18:33N 48°30' W 122°34'2 1.8
2017-Mar-25 17:33N 48°32' W 122°36'5 5.0
2017-Mar-25 16:33N 48°31' W 122°44'3 3.2
2017-Mar-25 15:33N 48°28' W 122°44'5 5.3
2017-Mar-25 14:33N 48°22' W 122°44'13 6.3
2017-Mar-25 12:29N 48°09' W 122°43'8 7.8
2017-Mar-25 11:28N 48°02' W 122°38'7 7.2
2017-Mar-25 10:33N 47°57' W 122°32'7 7.2
2017-Mar-25 09:33N 47°50' W 122°27'8 8.3
2017-Mar-25 08:33N 47°42' W 122°26'8 8.1
2017-Mar-25 07:33N 47°34' W 122°26'8 8.0
2017-Mar-25 06:33N 47°26' W 122°23'7 6.7
2017-Mar-25 05:33N 47°20' W 122°26'4 4.0
2017-Mar-25 04:32N 47°16' W 122°24'0 0.1
2017-Mar-25 03:33N 47°16' W 122°23'0 0.0
2017-Mar-25 02:33N 47°16' W 122°23'0 0.0
2017-Mar-25 01:15N 47°16' W 122°23'0 0.0
2017-Mar-25 00:12N 47°16' W 122°23'0 0.0
2017-Mar-24 23:28N 47°16' W 122°23'0 0.0
2017-Mar-24 22:31N 47°16' W 122°23'0 0.0
2017-Mar-24 21:33N 47°16' W 122°23'0 0.0
2017-Mar-24 20:33N 47°16' W 122°23'0 0.0
2017-Mar-24 19:33N 47°16' W 122°23'0 0.0
2017-Mar-24 18:33N 47°16' W 122°23'0 0.0
2017-Mar-24 17:33N 47°16' W 122°23'0 0.0
2017-Mar-24 16:33N 47°16' W 122°23'0 0.1
2017-Mar-24 15:33N 47°16' W 122°23'0 0.0
2017-Mar-24 14:33N 47°16' W 122°23'1 1.1
2017-Mar-24 13:33N 47°17' W 122°25'1 0.9
2017-Mar-24 12:33N 47°17' W 122°23'0 0.0
2017-Mar-23 21:11N 47°17' W 122°23'0 0.0
2017-Mar-23 20:20N 47°17' W 122°23'1 0.1
2017-Mar-23 13:21N 47°17' W 122°24'1 1.1
2017-Mar-23 12:33N 47°16' W 122°25'0 0.0
2017-Mar-23 11:33N 47°16' W 122°25'0 0.0
2017-Mar-23 10:33N 47°16' W 122°25'0 0.0
2017-Mar-23 09:33N 47°16' W 122°25'0 0.0
2017-Mar-23 08:33N 47°16' W 122°25'0 0.0
2017-Mar-23 07:33N 47°16' W 122°25'0 0.0
2017-Mar-23 06:33N 47°16' W 122°25'0 0.0
2017-Mar-23 05:33N 47°16' W 122°25'0 0.1
2017-Mar-23 04:33N 47°16' W 122°25'0 0.0
2017-Mar-23 03:32N 47°16' W 122°25'0 0.0
2017-Mar-23 02:25N 47°16' W 122°25'0 0.0
2017-Mar-23 01:33N 47°16' W 122°25'0 0.3
2017-Mar-23 00:33N 47°16' W 122°25'0 0.1
2017-Mar-22 22:18N 47°16' W 122°25'0 0.0
2017-Mar-22 21:33N 47°16' W 122°25'0 0.0
2017-Mar-22 20:33N 47°16' W 122°25'0 0.0
2017-Mar-22 18:18N 47°16' W 122°25'0 0.0
2017-Mar-22 16:33N 47°16' W 122°25'0 0.0
2017-Mar-22 15:32N 47°16' W 122°25'2 1.5
2017-Mar-22 14:33N 47°17' W 122°27'5 5.2
2017-Mar-22 13:33N 47°22' W 122°24'5 5.3
2017-Mar-22 12:33N 47°27' W 122°25'6 6.4
2017-Mar-22 11:33N 47°34' W 122°28'7 6.6
2017-Mar-22 10:33N 47°40' W 122°29'6 6.2
2017-Mar-22 09:33N 47°46' W 122°25'1 1.3
2017-Mar-22 08:33N 47°47' W 122°24'0 0.0
2017-Mar-22 07:33N 47°47' W 122°24'0 0.0
2017-Mar-22 06:33N 47°47' W 122°24'0 0.0
2017-Mar-22 05:33N 47°47' W 122°24'0 0.0
2017-Mar-22 04:33N 47°47' W 122°24'0 0.0
2017-Mar-22 03:33N 47°47' W 122°24'0 0.0
2017-Mar-22 02:33N 47°47' W 122°24'0 0.0
2017-Mar-22 01:33N 47°47' W 122°24'0 0.1
2017-Mar-22 00:33N 47°47' W 122°24'0 0.0
2017-Mar-21 23:33N 47°47' W 122°24'0 0.0
2017-Mar-21 22:33N 47°47' W 122°24'0 0.0
2017-Mar-21 21:33N 47°47' W 122°24'0 0.0
2017-Mar-21 20:33N 47°47' W 122°24'0 0.0
2017-Mar-21 19:33N 47°47' W 122°24'0 0.0
2017-Mar-21 18:33N 47°47' W 122°24'0 0.0
2017-Mar-21 17:33N 47°47' W 122°24'0 0.0
2017-Mar-21 16:33N 47°47' W 122°24'6 6.2
2017-Mar-21 15:33N 47°41' W 122°26'7 7.3
2017-Mar-21 14:33N 47°35' W 122°21'0 0.3
2017-Mar-21 13:33N 47°34' W 122°21'0 0.0
2017-Mar-21 12:33N 47°34' W 122°21'0 0.0
2017-Mar-21 11:33N 47°34' W 122°21'0 0.0
2017-Mar-21 10:33N 47°34' W 122°21'0 0.0
2017-Mar-21 09:33N 47°34' W 122°21'0 0.0
2017-Mar-21 08:33N 47°34' W 122°21'0 0.0
2017-Mar-21 07:33N 47°34' W 122°21'0 0.0
2017-Mar-21 06:33N 47°34' W 122°21'0 0.0
2017-Mar-21 05:33N 47°34' W 122°21'0 0.0
2017-Mar-21 04:33N 47°34' W 122°21'0 0.0
2017-Mar-21 03:33N 47°34' W 122°21'0 0.0
2017-Mar-21 02:33N 47°34' W 122°21'0 0.0
2017-Mar-21 01:33N 47°34' W 122°21'0 0.0
2017-Mar-21 00:33N 47°34' W 122°21'0 0.0
2017-Mar-20 23:33N 47°34' W 122°21'0 0.0
2017-Mar-20 22:33N 47°34' W 122°21'0 0.0
2017-Mar-20 21:33N 47°34' W 122°21'1 0.8
2017-Mar-20 20:33N 47°35' W 122°21'1 0.8
2017-Mar-20 19:33N 47°34' W 122°21'0 0.0
2017-Mar-20 18:33N 47°34' W 122°21'0 0.0
2017-Mar-20 17:33N 47°34' W 122°21'0 0.0
2017-Mar-20 16:33N 47°34' W 122°21'0 0.0
2017-Mar-20 15:33N 47°34' W 122°21'0 0.0
2017-Mar-20 14:33N 47°34' W 122°21'0 0.0
2017-Mar-20 13:33N 47°34' W 122°21'0 0.0
2017-Mar-20 12:33N 47°34' W 122°21'0 0.0
2017-Mar-20 11:33N 47°34' W 122°21'0 0.0
2017-Mar-20 10:33N 47°34' W 122°21'0 0.0
2017-Mar-20 09:33N 47°34' W 122°21'0 0.0
2017-Mar-20 08:33N 47°34' W 122°21'0 0.0
2017-Mar-20 07:33N 47°34' W 122°21'0 0.0
2017-Mar-20 06:33N 47°34' W 122°21'0 0.0
2017-Mar-20 05:33N 47°34' W 122°21'0 0.0
2017-Mar-20 04:33N 47°34' W 122°21'0 0.0
2017-Mar-20 03:33N 47°34' W 122°21'  
Track history (hours):
 
Tides and Currents Weather Stations Pressure Air Temp Water Temp Dewpoint Dewpoint Depression Visibility Wind Speed Wind Dir Waves Ship Positions

Eagle

Owner: Harley Marine Services, INC, SEATTLE, WA. More information available from US FCC via Universal Licensing System and Coast Guard Vessel Documentation Center.

Last reported at 2017-Mar-30 02:33 UTC. Time now 2017-Mar-30 02:52 UTC.
Position N 47°36' W 122°21'.

Length 32 m; draft 4.5 m.

Type: Tow > 200 m length. MMSI: 366978690.

Date/timePositionNaut miles runAvg speedWind from/ knotsBaromVisibWave heightAir tempDewpointWater temp
2017-Mar-30 02:33N 47°36' W 122°21'0 0.0
2017-Mar-30 01:33N 47°36' W 122°21'0 0.0
2017-Mar-30 00:33N 47°36' W 122°21'0 0.0
2017-Mar-29 23:33N 47°36' W 122°21'1 1.3
2017-Mar-29 22:33N 47°34' W 122°21'0 0.0
2017-Mar-29 21:33N 47°34' W 122°21'0 0.0
2017-Mar-29 20:33N 47°34' W 122°21'0 0.0
2017-Mar-29 19:33N 47°34' W 122°21'0 0.0
2017-Mar-29 18:33N 47°34' W 122°21'1 1.3
2017-Mar-29 17:33N 47°36' W 122°21'4 4.4
2017-Mar-29 16:33N 47°33' W 122°26'9 8.7
2017-Mar-29 15:33N 47°25' W 122°22'7 7.3
2017-Mar-29 14:33N 47°18' W 122°27'3 2.6
2017-Mar-29 13:33N 47°16' W 122°25'0 0.0
2017-Mar-29 12:28N 47°16' W 122°25'0 0.4
2017-Mar-29 11:33N 47°16' W 122°25'0 0.4
2017-Mar-29 10:33N 47°16' W 122°25'0 0.0
2017-Mar-29 09:32N 47°16' W 122°25'0 0.0
2017-Mar-29 08:33N 47°16' W 122°25'0 0.0
2017-Mar-29 07:33N 47°16' W 122°25'0 0.0
2017-Mar-29 06:33N 47°16' W 122°25'0 0.0
2017-Mar-29 05:33N 47°16' W 122°25'2 1.6
2017-Mar-29 04:33N 47°17' W 122°26'2 1.7
2017-Mar-29 03:33N 47°19' W 122°28'5 5.2
2017-Mar-29 02:33N 47°23' W 122°23'5 5.5
2017-Mar-29 01:33N 47°28' W 122°25'5 5.1
2017-Mar-29 00:33N 47°33' W 122°27'6 6.2
2017-Mar-28 23:33N 47°39' W 122°28'6 5.9
2017-Mar-28 22:33N 47°45' W 122°27'3 3.0
2017-Mar-28 21:33N 47°47' W 122°24'0 0.0
2017-Mar-28 20:33N 47°47' W 122°24'0 0.0
2017-Mar-28 19:33N 47°47' W 122°24'0 0.0
2017-Mar-28 18:33N 47°47' W 122°24'0 0.0
2017-Mar-28 17:33N 47°47' W 122°24'0 0.0
2017-Mar-28 16:33N 47°47' W 122°24'0 0.0
2017-Mar-28 15:33N 47°47' W 122°24'0 0.0
2017-Mar-28 14:33N 47°47' W 122°24'0 0.0
2017-Mar-28 13:33N 47°47' W 122°24'0 0.0
2017-Mar-28 12:33N 47°47' W 122°24'0 0.0
2017-Mar-28 11:33N 47°47' W 122°24'0 0.0
2017-Mar-28 10:33N 47°47' W 122°24'0 0.0
2017-Mar-28 09:33N 47°47' W 122°24'0 0.0
2017-Mar-28 08:33N 47°47' W 122°24'0 0.0
2017-Mar-28 07:33N 47°47' W 122°24'0 0.0
2017-Mar-28 06:33N 47°47' W 122°24'0 0.0
2017-Mar-28 05:33N 47°47' W 122°24'0 0.0
2017-Mar-28 04:33N 47°47' W 122°24'0 0.0
2017-Mar-28 03:33N 47°47' W 122°24'0 0.0
2017-Mar-28 02:33N 47°47' W 122°24'0 0.0
2017-Mar-28 01:33N 47°47' W 122°24'0 0.0
2017-Mar-28 00:33N 47°47' W 122°24'0 0.0
2017-Mar-27 23:33N 47°47' W 122°24'0 0.0
2017-Mar-27 22:33N 47°47' W 122°24'0 0.0
2017-Mar-27 21:33N 47°47' W 122°24'0 0.0
2017-Mar-27 20:33N 47°47' W 122°24'0 0.0
2017-Mar-27 19:33N 47°47' W 122°24'0 0.0
2017-Mar-27 18:33N 47°47' W 122°24'0 0.0
2017-Mar-27 17:33N 47°47' W 122°24'0 0.0
2017-Mar-27 16:33N 47°47' W 122°24'0 0.0
2017-Mar-27 15:33N 47°47' W 122°24'0 0.0
2017-Mar-27 14:33N 47°47' W 122°24'0 0.0
2017-Mar-27 13:33N 47°47' W 122°24'0 0.0
2017-Mar-27 12:33N 47°47' W 122°24'0 0.0
2017-Mar-27 11:33N 47°47' W 122°24'0 0.1
2017-Mar-27 10:33N 47°47' W 122°24'1 1.1
2017-Mar-27 09:33N 47°48' W 122°25'4 4.1
2017-Mar-27 08:33N 47°52' W 122°27'7 7.3
2017-Mar-27 07:32N 47°57' W 122°35'12 6.1
2017-Mar-27 05:31N 48°08' W 122°43'5 4.9
2017-Mar-27 04:33N 48°12' W 122°48'5 5.2
2017-Mar-27 03:30N 48°17' W 122°48'7 7.4
2017-Mar-27 02:31N 48°24' W 122°45'7 7.2
2017-Mar-27 01:33N 48°31' W 122°43'6 5.5
2017-Mar-27 00:32N 48°31' W 122°34'0 0.3
2017-Mar-26 23:30N 48°30' W 122°34'0 0.0
2017-Mar-26 22:30N 48°30' W 122°34'0 0.0
2017-Mar-26 21:30N 48°30' W 122°34'0 0.0
2017-Mar-26 20:30N 48°30' W 122°34'0 0.0
2017-Mar-26 19:30N 48°30' W 122°34'0 0.0
2017-Mar-26 18:30N 48°30' W 122°34'0 0.0
2017-Mar-26 17:30N 48°30' W 122°34'0 0.0
2017-Mar-26 16:30N 48°30' W 122°34'0 0.0
2017-Mar-26 15:18N 48°30' W 122°34'0 0.0
2017-Mar-26 14:30N 48°30' W 122°34'0 0.0
2017-Mar-26 13:12N 48°30' W 122°34'0 0.0
2017-Mar-26 12:30N 48°30' W 122°34'0 0.0
2017-Mar-26 11:30N 48°30' W 122°34'0 0.0
2017-Mar-26 10:24N 48°30' W 122°34'0 0.0
2017-Mar-26 09:30N 48°30' W 122°34'0 0.0
2017-Mar-26 08:24N 48°30' W 122°34'0 0.0
2017-Mar-26 07:30N 48°30' W 122°34'0 0.0
2017-Mar-26 06:30N 48°30' W 122°34'0 0.0
2017-Mar-26 05:30N 48°30' W 122°34'0 0.0
2017-Mar-26 04:24N 48°30' W 122°34'0 0.0
2017-Mar-26 03:31N 48°30' W 122°34'0 0.0
2017-Mar-26 02:33N 48°30' W 122°34'0 0.0
2017-Mar-26 01:33N 48°30' W 122°34'0 0.0
2017-Mar-26 00:33N 48°30' W 122°34'0 0.0
2017-Mar-25 23:33N 48°30' W 122°34'0 0.0
2017-Mar-25 22:33N 48°30' W 122°34'0 0.0
2017-Mar-25 21:33N 48°30' W 122°34'0 0.0
2017-Mar-25 20:33N 48°30' W 122°34'0 0.0
2017-Mar-25 19:33N 48°30' W 122°34'0 0.0
2017-Mar-25 18:33N 48°30' W 122°34'2 1.8
2017-Mar-25 17:33N 48°32' W 122°36'5 5.0
2017-Mar-25 16:33N 48°31' W 122°44'3 3.2
2017-Mar-25 15:33N 48°28' W 122°44'5 5.3
2017-Mar-25 14:33N 48°22' W 122°44'13 6.3
2017-Mar-25 12:29N 48°09' W 122°43'8 7.8
2017-Mar-25 11:28N 48°02' W 122°38'7 7.2
2017-Mar-25 10:33N 47°57' W 122°32'7 7.2
2017-Mar-25 09:33N 47°50' W 122°27'8 8.3
2017-Mar-25 08:33N 47°42' W 122°26'8 8.1
2017-Mar-25 07:33N 47°34' W 122°26'8 8.0
2017-Mar-25 06:33N 47°26' W 122°23'7 6.7
2017-Mar-25 05:33N 47°20' W 122°26'4 4.0
2017-Mar-25 04:32N 47°16' W 122°24'0 0.1
2017-Mar-25 03:33N 47°16' W 122°23'0 0.0
2017-Mar-25 02:33N 47°16' W 122°23'0 0.0
2017-Mar-25 01:15N 47°16' W 122°23'0 0.0
2017-Mar-25 00:12N 47°16' W 122°23'0 0.0
2017-Mar-24 23:28N 47°16' W 122°23'0 0.0
2017-Mar-24 22:31N 47°16' W 122°23'0 0.0
2017-Mar-24 21:33N 47°16' W 122°23'0 0.0
2017-Mar-24 20:33N 47°16' W 122°23'0 0.0
2017-Mar-24 19:33N 47°16' W 122°23'0 0.0
2017-Mar-24 18:33N 47°16' W 122°23'0 0.0
2017-Mar-24 17:33N 47°16' W 122°23'0 0.0
2017-Mar-24 16:33N 47°16' W 122°23'0 0.1
2017-Mar-24 15:33N 47°16' W 122°23'0 0.0
2017-Mar-24 14:33N 47°16' W 122°23'1 1.1
2017-Mar-24 13:33N 47°17' W 122°25'1 0.9
2017-Mar-24 12:33N 47°17' W 122°23'0 0.0
2017-Mar-23 21:11N 47°17' W 122°23'0 0.0
2017-Mar-23 20:20N 47°17' W 122°23'1 0.1
2017-Mar-23 13:21N 47°17' W 122°24'1 1.1
2017-Mar-23 12:33N 47°16' W 122°25'0 0.0
2017-Mar-23 11:33N 47°16' W 122°25'0 0.0
2017-Mar-23 10:33N 47°16' W 122°25'0 0.0
2017-Mar-23 09:33N 47°16' W 122°25'0 0.0
2017-Mar-23 08:33N 47°16' W 122°25'0 0.0
2017-Mar-23 07:33N 47°16' W 122°25'0 0.0
2017-Mar-23 06:33N 47°16' W 122°25'0 0.0
2017-Mar-23 05:33N 47°16' W 122°25'0 0.1
2017-Mar-23 04:33N 47°16' W 122°25'0 0.0
2017-Mar-23 03:32N 47°16' W 122°25'0 0.0
2017-Mar-23 02:25N 47°16' W 122°25'0 0.0
2017-Mar-23 01:33N 47°16' W 122°25'0 0.3
2017-Mar-23 00:33N 47°16' W 122°25'0 0.1
2017-Mar-22 22:18N 47°16' W 122°25'0 0.0
2017-Mar-22 21:33N 47°16' W 122°25'0 0.0
2017-Mar-22 20:33N 47°16' W 122°25'0 0.0
2017-Mar-22 18:18N 47°16' W 122°25'0 0.0
2017-Mar-22 16:33N 47°16' W 122°25'0 0.0
2017-Mar-22 15:32N 47°16' W 122°25'2 1.5
2017-Mar-22 14:33N 47°17' W 122°27'5 5.2
2017-Mar-22 13:33N 47°22' W 122°24'5 5.3
2017-Mar-22 12:33N 47°27' W 122°25'6 6.4
2017-Mar-22 11:33N 47°34' W 122°28'7 6.6
2017-Mar-22 10:33N 47°40' W 122°29'6 6.2
2017-Mar-22 09:33N 47°46' W 122°25'1 1.3
2017-Mar-22 08:33N 47°47' W 122°24'0 0.0
2017-Mar-22 07:33N 47°47' W 122°24'0 0.0
2017-Mar-22 06:33N 47°47' W 122°24'0 0.0
2017-Mar-22 05:33N 47°47' W 122°24'0 0.0
2017-Mar-22 04:33N 47°47' W 122°24'0 0.0
2017-Mar-22 03:33N 47°47' W 122°24'0 0.0
2017-Mar-22 02:33N 47°47' W 122°24'0 0.0
2017-Mar-22 01:33N 47°47' W 122°24'0 0.1
2017-Mar-22 00:33N 47°47' W 122°24'0 0.0
2017-Mar-21 23:33N 47°47' W 122°24'0 0.0
2017-Mar-21 22:33N 47°47' W 122°24'0 0.0
2017-Mar-21 21:33N 47°47' W 122°24'0 0.0
2017-Mar-21 20:33N 47°47' W 122°24'0 0.0
2017-Mar-21 19:33N 47°47' W 122°24'0 0.0
2017-Mar-21 18:33N 47°47' W 122°24'0 0.0
2017-Mar-21 17:33N 47°47' W 122°24'0 0.0
2017-Mar-21 16:33N 47°47' W 122°24'6 6.2
2017-Mar-21 15:33N 47°41' W 122°26'7 7.3
2017-Mar-21 14:33N 47°35' W 122°21'0 0.3
2017-Mar-21 13:33N 47°34' W 122°21'0 0.0
2017-Mar-21 12:33N 47°34' W 122°21'0 0.0
2017-Mar-21 11:33N 47°34' W 122°21'0 0.0
2017-Mar-21 10:33N 47°34' W 122°21'0 0.0
2017-Mar-21 09:33N 47°34' W 122°21'0 0.0
2017-Mar-21 08:33N 47°34' W 122°21'0 0.0
2017-Mar-21 07:33N 47°34' W 122°21'0 0.0
2017-Mar-21 06:33N 47°34' W 122°21'0 0.0
2017-Mar-21 05:33N 47°34' W 122°21'0 0.0
2017-Mar-21 04:33N 47°34' W 122°21'0 0.0
2017-Mar-21 03:33N 47°34' W 122°21'0 0.0
2017-Mar-21 02:33N 47°34' W 122°21'0 0.0
2017-Mar-21 01:33N 47°34' W 122°21'0 0.0
2017-Mar-21 00:33N 47°34' W 122°21'0 0.0
2017-Mar-20 23:33N 47°34' W 122°21'0 0.0
2017-Mar-20 22:33N 47°34' W 122°21'0 0.0
2017-Mar-20 21:33N 47°34' W 122°21'1 0.8
2017-Mar-20 20:33N 47°35' W 122°21'1 0.8
2017-Mar-20 19:33N 47°34' W 122°21'0 0.0
2017-Mar-20 18:33N 47°34' W 122°21'0 0.0
2017-Mar-20 17:33N 47°34' W 122°21'0 0.0
2017-Mar-20 16:33N 47°34' W 122°21'0 0.0
2017-Mar-20 15:33N 47°34' W 122°21'0 0.0
2017-Mar-20 14:33N 47°34' W 122°21'0 0.0
2017-Mar-20 13:33N 47°34' W 122°21'0 0.0
2017-Mar-20 12:33N 47°34' W 122°21'0 0.0
2017-Mar-20 11:33N 47°34' W 122°21'0 0.0
2017-Mar-20 10:33N 47°34' W 122°21'0 0.0
2017-Mar-20 09:33N 47°34' W 122°21'0 0.0
2017-Mar-20 08:33N 47°34' W 122°21'0 0.0
2017-Mar-20 07:33N 47°34' W 122°21'0 0.0
2017-Mar-20 06:33N 47°34' W 122°21'0 0.0
2017-Mar-20 05:33N 47°34' W 122°21'0 0.0
2017-Mar-20 04:33N 47°34' W 122°21'0 0.0
2017-Mar-20 03:33N 47°34' W 122°21'  

Dump ship's entire track history